createdAt,value
2018-02-19T00:00:17.703Z,21.87
2018-02-19T00:02:45.825Z,22.43
2018-02-19T00:05:13.968Z,22.23
2018-02-19T00:07:42.087Z,21.00
2018-02-19T00:10:10.208Z,20.87
2018-02-19T00:12:38.351Z,22.60
2018-02-19T00:15:06.489Z,21.37
2018-02-19T00:17:34.683Z,21.63
2018-02-19T00:20:02.802Z,23.07
2018-02-19T00:22:30.920Z,22.33
2018-02-19T00:24:59.092Z,22.77
2018-02-19T00:27:27.227Z,22.67
2018-02-19T00:29:55.404Z,22.40
2018-02-19T00:32:23.522Z,23.80
2018-02-19T00:34:51.635Z,23.07
2018-02-19T00:37:19.813Z,23.53
2018-02-19T00:39:47.934Z,22.53
2018-02-19T00:42:16.083Z,23.70
2018-02-19T00:44:44.221Z,23.90
2018-02-19T00:47:12.384Z,23.20
2018-02-19T00:49:40.573Z,22.83
2018-02-19T00:52:08.725Z,24.03
2018-02-19T00:54:36.905Z,23.93
2018-02-19T00:57:05.247Z,22.97
2018-02-19T00:59:33.389Z,22.83
2018-02-19T01:02:01.510Z,24.40
2018-02-19T01:04:29.624Z,23.40
2018-02-19T01:06:57.745Z,22.70
2018-02-19T01:09:25.861Z,24.77
2018-02-19T01:11:54.005Z,23.67
2018-02-19T01:14:22.115Z,24.23
2018-02-19T01:16:50.236Z,23.80
2018-02-19T01:19:18.367Z,24.07
2018-02-19T01:21:46.477Z,25.00
2018-02-19T01:24:14.599Z,24.40
2018-02-19T01:26:42.724Z,24.23
2018-02-19T01:29:10.837Z,24.83
2018-02-19T01:31:38.969Z,24.10
2018-02-19T01:34:07.087Z,24.33
2018-02-19T01:36:35.218Z,24.77
2018-02-19T01:39:03.355Z,24.33
2018-02-19T01:41:31.480Z,24.40
2018-02-19T01:43:59.583Z,25.07
2018-02-19T01:46:27.725Z,25.40
2018-02-19T01:48:55.835Z,25.50
2018-02-19T01:51:23.992Z,25.90
2018-02-19T01:53:52.092Z,25.50
2018-02-19T01:56:20.226Z,26.57
2018-02-19T01:58:48.347Z,26.10
2018-02-19T02:01:16.493Z,27.07
2018-02-19T02:03:44.636Z,26.13
2018-02-19T02:06:12.842Z,27.93
2018-02-19T02:08:41.230Z,26.07
2018-02-19T02:11:09.430Z,26.83
2018-02-19T02:13:37.568Z,28.27
2018-02-19T02:16:05.688Z,27.57
2018-02-19T02:18:33.814Z,27.90
2018-02-19T02:21:01.978Z,27.90
2018-02-19T02:23:30.096Z,28.63
2018-02-19T02:25:58.233Z,28.60
2018-02-19T02:28:26.361Z,28.53
2018-02-19T02:30:54.483Z,28.40
2018-02-19T02:33:22.611Z,28.53
2018-02-19T02:35:50.733Z,26.90
2018-02-19T02:38:18.847Z,28.03
2018-02-19T02:40:46.970Z,28.73
2018-02-19T02:43:15.103Z,28.63
2018-02-19T02:45:43.215Z,29.33
2018-02-19T02:48:11.350Z,28.03
2018-02-19T02:50:39.475Z,27.17
2018-02-19T02:53:07.599Z,29.70
2018-02-19T02:55:35.703Z,28.90
2018-02-19T02:58:03.834Z,29.07
2018-02-19T03:00:31.942Z,28.60
2018-02-19T03:03:00.100Z,29.23
2018-02-19T03:05:28.217Z,30.33
2018-02-19T03:07:56.318Z,29.73
2018-02-19T03:10:24.434Z,30.17
2018-02-19T03:12:52.619Z,30.90
2018-02-19T03:15:20.730Z,30.30
2018-02-19T03:17:48.858Z,28.83
2018-02-19T03:20:16.976Z,31.13
2018-02-19T03:22:45.084Z,31.40
2018-02-19T03:25:13.232Z,31.03
2018-02-19T03:27:41.343Z,30.83
2018-02-19T03:30:09.470Z,30.27
2018-02-19T03:32:37.580Z,30.70
2018-02-19T03:35:05.687Z,31.80
2018-02-19T03:37:33.802Z,30.57
2018-02-19T03:40:01.933Z,31.07
2018-02-19T03:42:30.044Z,29.83
2018-02-19T03:44:58.176Z,31.33
2018-02-19T03:47:26.282Z,30.50
2018-02-19T03:49:54.410Z,31.13
2018-02-19T03:52:22.512Z,31.00
2018-02-19T03:54:50.641Z,31.57
2018-02-19T03:57:18.764Z,31.57
2018-02-19T03:59:46.884Z,29.97
2018-02-19T04:02:15.010Z,30.03
2018-02-19T04:04:43.116Z,29.33
2018-02-19T04:07:12.107Z,30.63
2018-02-19T04:09:40.216Z,32.83
2018-02-19T04:12:08.341Z,31.93
2018-02-19T04:14:36.454Z,30.47
2018-02-19T04:17:04.566Z,29.93
2018-02-19T04:19:32.692Z,28.50
2018-02-19T04:22:00.831Z,30.97
2018-02-19T04:24:28.949Z,30.47
2018-02-19T04:26:57.092Z,30.00
2018-02-19T04:29:25.213Z,30.73
2018-02-19T04:31:53.363Z,29.40
2018-02-19T04:34:21.477Z,30.90
2018-02-19T04:36:49.586Z,30.13
2018-02-19T04:39:17.699Z,28.83
2018-02-19T04:41:45.842Z,28.90
2018-02-19T04:47:15.850Z,29.50
2018-02-19T04:49:43.970Z,29.17
2018-02-19T04:52:12.101Z,29.67
2018-02-19T04:54:40.216Z,29.73
2018-02-19T04:57:08.323Z,28.90
2018-02-19T04:59:36.439Z,29.37
2018-02-19T05:02:04.574Z,28.00
2018-02-19T05:04:32.744Z,28.80
2018-02-19T05:07:00.857Z,29.47
2018-02-19T05:09:29.005Z,28.13
2018-02-19T05:11:57.113Z,27.40
2018-02-19T05:14:25.250Z,28.93
2018-02-19T05:16:53.351Z,28.57
2018-02-19T05:19:21.501Z,28.07
2018-02-19T05:21:49.605Z,27.30
2018-02-19T05:24:17.733Z,29.10
2018-02-19T05:26:45.854Z,29.53
2018-02-19T05:29:13.970Z,26.53
2018-02-19T05:31:42.077Z,26.77
2018-02-19T05:34:10.213Z,27.70
2018-02-19T05:36:38.338Z,27.83
2018-02-19T05:39:06.452Z,27.20
2018-02-19T05:41:34.568Z,26.20
2018-02-19T05:44:02.705Z,27.30
2018-02-19T05:46:30.818Z,27.93
2018-02-19T05:48:58.946Z,27.00
2018-02-19T05:51:27.074Z,25.83
2018-02-19T05:53:55.319Z,26.03
2018-02-19T05:56:23.492Z,25.07
2018-02-19T05:58:51.591Z,25.00
2018-02-19T06:01:19.734Z,24.07
2018-02-19T06:03:47.844Z,25.73
2018-02-19T06:06:15.979Z,24.03
2018-02-19T06:08:44.147Z,24.97
2018-02-19T06:11:12.283Z,24.30
2018-02-19T06:13:40.407Z,23.93
2018-02-19T06:16:08.526Z,25.17
2018-02-19T06:18:36.685Z,23.43
2018-02-19T06:21:04.768Z,25.47
2018-02-19T06:23:36.711Z,23.03
2018-02-19T06:26:04.844Z,23.60
2018-02-19T06:28:32.959Z,22.90
2018-02-19T06:31:01.104Z,22.47
2018-02-19T06:33:29.226Z,23.63
2018-02-19T06:35:57.368Z,24.40
2018-02-19T06:38:25.825Z,23.67
2018-02-19T06:40:53.946Z,22.73
2018-02-19T06:43:22.111Z,21.77
2018-02-19T06:45:50.202Z,22.80
2018-02-19T06:48:18.349Z,23.03
2018-02-19T06:50:46.447Z,23.53
2018-02-19T06:53:14.577Z,22.10
2018-02-19T06:55:42.702Z,23.07
2018-02-19T06:58:10.825Z,25.20
2018-02-19T07:00:38.941Z,23.17
2018-02-19T07:03:07.073Z,22.37
2018-02-19T07:05:35.195Z,22.53
2018-02-19T07:08:03.671Z,22.47
2018-02-19T07:10:31.782Z,22.00
2018-02-19T07:12:59.913Z,21.60
2018-02-19T07:15:28.047Z,21.90
2018-02-19T07:17:56.203Z,21.37
2018-02-19T07:20:24.312Z,22.40
2018-02-19T07:22:56.091Z,21.60
2018-02-19T07:25:24.230Z,22.40
2018-02-19T07:27:55.701Z,21.60
2018-02-19T07:30:23.978Z,21.67
2018-02-19T07:32:52.079Z,22.43
2018-02-19T07:35:20.204Z,21.80
2018-02-19T07:37:48.348Z,21.73
2018-02-19T07:40:16.515Z,22.13
2018-02-19T07:42:44.624Z,22.07
2018-02-19T07:45:12.752Z,21.17
2018-02-19T07:47:41.264Z,21.40
2018-02-19T07:50:09.397Z,20.90
2018-02-19T07:52:37.527Z,22.37
2018-02-19T07:55:05.670Z,21.90
2018-02-19T07:57:33.785Z,21.37
2018-02-19T08:00:01.909Z,21.80
2018-02-19T08:02:30.034Z,20.73
2018-02-19T08:04:59.047Z,22.60
2018-02-19T08:07:27.184Z,20.80
2018-02-19T08:09:55.314Z,21.10
2018-02-19T08:12:23.440Z,21.97
2018-02-19T08:14:51.574Z,20.07
2018-02-19T08:17:19.670Z,22.00
2018-02-19T08:19:47.786Z,21.57
2018-02-19T08:22:15.917Z,20.97
2018-02-19T08:24:44.029Z,21.37
2018-02-19T08:27:12.171Z,22.13
2018-02-19T08:29:40.272Z,21.67
2018-02-19T08:32:08.395Z,20.77
2018-02-19T08:34:36.566Z,21.03
2018-02-19T08:37:04.703Z,21.90
2018-02-19T08:39:32.826Z,21.43
2018-02-19T08:42:00.949Z,20.70
2018-02-19T08:44:29.138Z,20.77
2018-02-19T08:46:57.271Z,21.83
2018-02-19T08:49:25.455Z,20.40
2018-02-19T08:51:53.626Z,22.10
2018-02-19T08:54:22.271Z,21.03
2018-02-19T08:56:50.482Z,22.20
2018-02-19T08:59:21.904Z,21.23
2018-02-19T09:01:53.396Z,20.97
2018-02-19T09:04:21.606Z,21.63
2018-02-19T09:06:49.761Z,22.50
2018-02-19T09:09:17.890Z,21.13
2018-02-19T09:11:49.399Z,21.30
2018-02-19T09:14:17.719Z,22.40
2018-02-19T09:16:46.161Z,23.03
2018-02-19T09:19:14.373Z,22.87
2018-02-19T09:21:42.508Z,22.27
2018-02-19T09:24:10.728Z,21.83
2018-02-19T09:26:38.841Z,22.53
2018-02-19T09:29:06.965Z,22.87
2018-02-19T09:31:35.086Z,21.73
2018-02-19T09:34:03.234Z,21.47
2018-02-19T09:36:31.367Z,22.50
2018-02-19T09:38:59.483Z,20.73
2018-02-19T09:41:27.667Z,22.70
2018-02-19T09:43:55.809Z,21.53
2018-02-19T09:46:23.920Z,21.50
2018-02-19T09:48:52.040Z,19.93
2018-02-19T09:51:20.164Z,21.03
2018-02-19T09:53:48.290Z,19.57
2018-02-19T09:56:16.424Z,22.63
2018-02-19T09:58:44.555Z,20.53
2018-02-19T10:01:12.678Z,21.23
2018-02-19T10:03:40.784Z,20.10
2018-02-19T10:06:08.923Z,21.73
2018-02-19T10:08:37.053Z,21.90
2018-02-19T10:11:05.190Z,21.27
2018-02-19T10:13:33.320Z,20.33
2018-02-19T10:16:01.449Z,22.37
2018-02-19T10:18:29.605Z,21.33
2018-02-19T10:20:57.751Z,19.37
2018-02-19T10:23:25.888Z,22.17
2018-02-19T10:25:57.042Z,21.23
2018-02-19T10:28:25.714Z,20.90
2018-02-19T10:30:53.854Z,22.33
2018-02-19T10:33:22.053Z,19.80
2018-02-19T10:35:50.173Z,21.30
2018-02-19T10:38:18.297Z,21.33
2018-02-19T10:40:46.472Z,20.40
2018-02-19T10:43:14.606Z,22.00
2018-02-19T10:45:42.734Z,22.43
2018-02-19T10:48:10.867Z,19.60
2018-02-19T10:50:38.995Z,20.20
2018-02-19T10:53:07.115Z,21.47
2018-02-19T10:55:35.224Z,20.20
2018-02-19T10:58:03.350Z,20.37
2018-02-19T11:00:37.317Z,21.03
2018-02-19T11:03:05.469Z,19.77
2018-02-19T11:05:33.572Z,19.47
2018-02-19T11:08:01.699Z,20.03
2018-02-19T11:10:29.809Z,19.53
2018-02-19T11:12:57.961Z,20.37
2018-02-19T11:15:26.099Z,20.53
2018-02-19T11:17:54.287Z,19.83
2018-02-19T11:20:22.424Z,19.50
2018-02-19T11:22:50.544Z,20.03
2018-02-19T11:25:18.668Z,19.87
2018-02-19T11:27:46.776Z,20.10
2018-02-19T11:30:14.952Z,22.10
2018-02-19T11:32:43.098Z,21.10
2018-02-19T11:35:11.227Z,20.43
2018-02-19T11:37:39.352Z,19.17
2018-02-19T11:40:07.470Z,20.20
2018-02-19T11:42:35.595Z,19.87
2018-02-19T11:45:03.724Z,18.47
2018-02-19T11:47:31.841Z,20.20
2018-02-19T11:49:59.978Z,20.27
2018-02-19T11:52:28.104Z,18.83
2018-02-19T11:54:56.252Z,20.13
2018-02-19T11:57:24.381Z,19.03
2018-02-19T11:59:52.549Z,17.60
2018-02-19T12:02:20.607Z,17.47
2018-02-19T12:04:48.749Z,19.40
2018-02-19T12:07:16.869Z,21.07
2018-02-19T12:09:45.001Z,19.67
2018-02-19T12:12:13.107Z,19.83
2018-02-19T12:14:41.255Z,21.10
2018-02-19T12:17:09.390Z,19.07
2018-02-19T12:19:37.519Z,19.23
2018-02-19T12:22:05.665Z,20.40
2018-02-19T12:24:33.796Z,17.97
2018-02-19T12:27:01.922Z,20.67
2018-02-19T12:29:30.034Z,19.43
2018-02-19T12:31:58.146Z,20.13
2018-02-19T12:34:26.322Z,19.10
2018-02-19T12:36:54.418Z,19.07
2018-02-19T12:39:22.555Z,19.77
2018-02-19T12:41:50.674Z,18.63
2018-02-19T12:44:18.820Z,20.07
2018-02-19T12:46:46.930Z,19.97
2018-02-19T12:49:15.090Z,19.63
2018-02-19T12:51:43.199Z,20.43
2018-02-19T12:54:11.333Z,18.90
2018-02-19T12:56:39.458Z,19.73
2018-02-19T12:59:07.571Z,19.57
2018-02-19T13:01:35.733Z,20.13
2018-02-19T13:04:03.849Z,18.90
2018-02-19T13:06:35.000Z,18.87
2018-02-19T13:09:03.146Z,18.67
2018-02-19T13:11:31.261Z,19.47
2018-02-19T13:13:59.366Z,18.90
2018-02-19T13:16:27.494Z,19.60
2018-02-19T13:18:55.626Z,21.60
2018-02-19T13:21:23.736Z,19.00
2018-02-19T13:23:51.858Z,19.13
2018-02-19T13:26:19.976Z,18.67
2018-02-19T13:28:48.099Z,18.43
2018-02-19T13:31:16.223Z,19.67
2018-02-19T13:33:44.379Z,18.90
2018-02-19T13:36:12.520Z,20.40
2018-02-19T13:38:40.626Z,20.30
2018-02-19T13:41:08.769Z,20.37
2018-02-19T13:43:47.726Z,19.77
2018-02-19T13:46:15.852Z,18.83
2018-02-19T13:48:44.004Z,19.37
2018-02-19T13:51:12.125Z,21.00
2018-02-19T13:53:40.252Z,19.30
2018-02-19T13:56:08.385Z,19.00
2018-02-19T13:58:36.519Z,19.93
2018-02-19T14:01:04.713Z,19.03
2018-02-19T14:03:32.858Z,20.70
2018-02-19T14:06:04.543Z,19.53
2018-02-19T14:08:32.675Z,19.60
2018-02-19T14:11:00.784Z,19.37
2018-02-19T14:13:28.899Z,21.53
2018-02-19T14:15:57.037Z,19.43
2018-02-19T14:18:25.767Z,20.17
2018-02-19T14:20:53.906Z,19.73
2018-02-19T14:23:22.029Z,20.73
2018-02-19T14:25:50.181Z,20.10
2018-02-19T14:28:18.324Z,20.37
2018-02-19T14:30:46.443Z,19.33
2018-02-19T14:33:14.847Z,19.10
2018-02-19T14:35:46.349Z,19.53
2018-02-19T14:38:14.513Z,18.97
2018-02-19T14:40:42.637Z,19.13
2018-02-19T14:43:10.770Z,20.43
2018-02-19T14:45:38.916Z,19.27
2018-02-19T14:48:07.021Z,19.13
2018-02-19T14:50:35.217Z,19.33
2018-02-19T14:53:03.350Z,18.83
2018-02-19T14:55:31.478Z,19.47
2018-02-19T14:57:59.596Z,20.13
2018-02-19T15:00:27.736Z,20.87
2018-02-19T15:02:55.868Z,22.53
2018-02-19T15:05:23.973Z,20.63
2018-02-19T15:07:52.110Z,20.40
2018-02-19T15:10:21.138Z,18.30
2018-02-19T15:12:49.270Z,21.17
2018-02-19T15:15:17.395Z,18.97
2018-02-19T15:17:45.531Z,20.10
2018-02-19T15:20:13.641Z,20.37
2018-02-19T15:22:41.801Z,19.23
2018-02-19T15:25:09.923Z,19.63
2018-02-19T15:27:38.042Z,19.47
2018-02-19T15:30:06.174Z,19.13
2018-02-19T15:32:34.321Z,19.70
2018-02-19T15:35:02.449Z,18.37
2018-02-19T15:37:30.561Z,19.23
2018-02-19T15:39:58.689Z,20.00
2018-02-19T15:42:26.834Z,19.73
2018-02-19T15:44:54.956Z,19.77
2018-02-19T15:47:23.082Z,18.87
2018-02-19T15:49:51.194Z,21.50
2018-02-19T15:52:19.333Z,19.23
2018-02-19T15:54:47.461Z,19.97
2018-02-19T15:57:15.583Z,19.53
2018-02-19T15:59:43.716Z,19.60
2018-02-19T16:02:11.838Z,20.23
2018-02-19T16:04:39.971Z,19.80
2018-02-19T16:07:08.084Z,18.07
2018-02-19T16:09:36.230Z,20.03
2018-02-19T16:12:04.376Z,18.53
2018-02-19T16:14:32.494Z,20.63
2018-02-19T16:17:00.596Z,20.50
2018-02-19T16:19:28.743Z,19.40
2018-02-19T16:21:56.880Z,20.10
2018-02-19T16:24:25.051Z,20.70
2018-02-19T16:26:53.209Z,20.13
2018-02-19T16:29:21.338Z,21.33
2018-02-19T16:31:50.357Z,20.90
2018-02-19T16:34:18.511Z,19.70
2018-02-19T16:36:46.626Z,20.33
2018-02-19T16:39:14.757Z,20.97
2018-02-19T16:41:42.883Z,20.50
2018-02-19T16:44:11.008Z,20.07
2018-02-19T16:46:39.132Z,20.50
2018-02-19T16:49:07.269Z,20.33
2018-02-19T16:51:35.728Z,21.90
2018-02-19T16:54:03.942Z,22.13
2018-02-19T16:56:32.057Z,21.47
2018-02-19T16:59:00.204Z,20.87
2018-02-19T17:01:28.337Z,21.67
2018-02-19T17:03:56.451Z,21.00
2018-02-19T17:06:24.569Z,21.30
2018-02-19T17:08:52.794Z,21.80
2018-02-19T17:11:20.894Z,23.17
2018-02-19T17:13:49.021Z,20.60
2018-02-19T17:16:17.139Z,23.20
2018-02-19T17:18:45.276Z,23.47
2018-02-19T17:21:13.420Z,22.23
2018-02-19T17:23:41.564Z,23.70
2018-02-19T17:26:09.656Z,23.93
2018-02-19T17:28:37.796Z,23.53
2018-02-19T17:31:05.911Z,21.60
2018-02-19T17:33:34.057Z,22.10
2018-02-19T17:36:02.182Z,23.57
2018-02-19T17:38:30.314Z,25.17
2018-02-19T17:40:58.441Z,24.00
2018-02-19T17:43:26.572Z,23.27
2018-02-19T17:45:54.681Z,22.23
2018-02-19T17:48:22.819Z,22.63
2018-02-19T17:50:51.083Z,21.80
2018-02-19T17:53:19.212Z,24.10
2018-02-19T17:55:47.333Z,20.33
2018-02-19T17:58:15.556Z,20.93
2018-02-19T18:00:43.678Z,21.10
2018-02-19T18:03:11.792Z,21.30
2018-02-19T18:05:39.918Z,20.47
2018-02-19T18:08:08.040Z,20.30
2018-02-19T18:10:36.149Z,21.23
2018-02-19T18:13:04.276Z,20.70
2018-02-19T18:15:32.387Z,21.33
2018-02-19T18:18:00.544Z,21.83
2018-02-19T18:20:28.660Z,21.77
2018-02-19T18:22:56.804Z,21.27
2018-02-19T18:25:24.947Z,20.67
2018-02-19T18:27:53.081Z,20.70
2018-02-19T18:30:21.232Z,20.97
2018-02-19T18:32:52.764Z,21.90
2018-02-19T18:35:20.982Z,21.07
2018-02-19T18:37:49.117Z,21.37
2018-02-19T18:40:17.248Z,20.90
2018-02-19T18:42:45.387Z,21.67
2018-02-19T18:45:13.488Z,21.70
2018-02-19T18:47:41.678Z,22.03
2018-02-19T18:50:09.808Z,23.10
2018-02-19T18:52:37.946Z,21.97
2018-02-19T18:55:06.071Z,22.47
2018-02-19T18:57:34.223Z,22.70
2018-02-19T19:00:02.358Z,22.23
2018-02-19T19:02:30.489Z,21.77
2018-02-19T19:04:58.618Z,23.07
2018-02-19T19:07:38.459Z,22.93
2018-02-19T19:13:08.727Z,22.17
2018-02-19T19:15:36.861Z,21.57
2018-02-19T19:18:04.951Z,23.20
2018-02-19T19:20:33.068Z,22.87
2018-02-19T19:23:01.185Z,22.80
2018-02-19T19:25:29.312Z,23.77
2018-02-19T19:27:57.441Z,22.60
2018-02-19T19:30:25.568Z,23.13
2018-02-19T19:32:53.695Z,23.43
2018-02-19T19:35:21.827Z,23.37
2018-02-19T19:37:49.953Z,22.30
2018-02-19T19:40:18.083Z,21.90
2018-02-19T19:42:46.200Z,22.47
2018-02-19T19:45:14.325Z,22.37
2018-02-19T19:47:42.451Z,22.70
2018-02-19T19:50:10.581Z,21.57
2018-02-19T19:52:38.716Z,21.47
2018-02-19T19:55:09.996Z,20.87
2018-02-19T19:57:38.326Z,21.27
2018-02-19T20:00:06.444Z,21.93
2018-02-19T20:02:34.583Z,21.07
2018-02-19T20:05:02.706Z,21.47
2018-02-19T20:07:30.831Z,22.13
2018-02-19T20:10:00.856Z,22.53
2018-02-19T20:12:29.335Z,21.33
2018-02-19T20:14:57.495Z,22.40
2018-02-19T20:17:25.624Z,22.00
2018-02-19T20:19:53.752Z,22.10
2018-02-19T20:22:25.153Z,21.30
2018-02-19T20:24:53.463Z,21.27
2018-02-19T20:27:21.605Z,21.73
2018-02-19T20:29:49.730Z,22.17
2018-02-19T20:32:17.852Z,22.00
2018-02-19T20:34:45.983Z,23.17
2018-02-19T20:37:14.109Z,22.97
2018-02-19T20:39:42.239Z,22.47
2018-02-19T20:42:10.358Z,23.47
2018-02-19T20:44:38.480Z,22.73
2018-02-19T20:47:06.603Z,22.77
2018-02-19T20:49:34.706Z,23.17
2018-02-19T20:52:02.825Z,24.30
2018-02-19T20:54:30.958Z,23.40
2018-02-19T20:56:59.080Z,23.60
2018-02-19T20:59:27.216Z,24.40
2018-02-19T21:01:55.329Z,22.50
2018-02-19T21:04:23.451Z,24.83
2018-02-19T21:06:51.573Z,24.83
2018-02-19T21:09:19.717Z,24.33
2018-02-19T21:11:47.837Z,24.13
2018-02-19T21:14:15.956Z,24.03
2018-02-19T21:16:44.075Z,23.23
2018-02-19T21:19:12.184Z,23.37
2018-02-19T21:21:40.326Z,23.57
2018-02-19T21:24:08.458Z,24.50
2018-02-19T21:26:36.575Z,23.47
2018-02-19T21:29:04.686Z,23.33
2018-02-19T21:31:32.824Z,24.63
2018-02-19T21:34:00.940Z,22.87
2018-02-19T21:36:29.064Z,23.67
2018-02-19T21:38:57.210Z,24.40
2018-02-19T21:41:25.299Z,23.77
2018-02-19T21:43:53.417Z,23.67
2018-02-19T21:46:21.531Z,24.07
2018-02-19T21:48:49.702Z,23.50
2018-02-19T21:51:17.768Z,23.17
2018-02-19T21:53:45.900Z,24.90
2018-02-19T21:56:14.033Z,23.63
2018-02-19T21:58:42.143Z,24.93
2018-02-19T22:01:10.443Z,24.63
2018-02-19T22:03:38.553Z,24.23
2018-02-19T22:06:06.691Z,24.13
2018-02-19T22:08:34.806Z,24.50
2018-02-19T22:11:02.938Z,24.53
2018-02-19T22:13:31.074Z,23.37
2018-02-19T22:15:59.203Z,25.53
2018-02-19T22:18:27.424Z,24.43
2018-02-19T22:20:55.556Z,24.30
2018-02-19T22:23:23.724Z,24.73
2018-02-19T22:25:51.825Z,23.73
2018-02-19T22:28:19.954Z,26.70
2018-02-19T22:30:48.099Z,25.50
2018-02-19T22:33:16.208Z,25.97
2018-02-19T22:35:44.312Z,23.90
2018-02-19T22:38:12.427Z,24.87
2018-02-19T22:40:40.562Z,25.43
2018-02-19T22:43:08.689Z,26.47
2018-02-19T22:45:36.800Z,24.23
2018-02-19T22:48:04.931Z,24.00
2018-02-19T22:50:33.078Z,24.30
2018-02-19T22:53:01.205Z,24.13
2018-02-19T22:55:35.587Z,23.87
2018-02-19T22:58:03.701Z,23.53
2018-02-19T23:00:31.833Z,23.37
2018-02-19T23:02:59.942Z,24.33
2018-02-19T23:05:28.060Z,22.43
2018-02-19T23:07:56.185Z,24.27
2018-02-19T23:10:24.311Z,24.23
2018-02-19T23:12:52.431Z,22.83
2018-02-19T23:15:20.545Z,23.90
2018-02-19T23:17:48.682Z,25.63
2018-02-19T23:20:16.803Z,24.03
2018-02-19T23:22:44.935Z,25.00
2018-02-19T23:25:13.057Z,24.63
2018-02-19T23:27:41.197Z,23.07
2018-02-19T23:47:36.509Z,23.80
2018-02-19T23:50:07.510Z,25.13
2018-02-19T23:52:35.716Z,24.73
2018-02-19T23:55:09.863Z,24.60
2018-02-19T23:57:38.851Z,25.43
